Time;durP1;ratioP1;P1;durP2;ratioP2;P2;SDS_P1;SDS_P2;PMS_P1;PMS_P2;Temp;Humidity;BMP_temperature;BMP_pressure;BME280_temperature;BME280_humidity;BME280_pressure;Samples;Min_cycle;Max_cycle;Signal;HPM_P1;HPM_P2
2022/08/20 00:01:03;;;;;;;0.00;0.00;;;19.80;99.90;;;;;;4988382;28;20038;-68
2022/08/20 00:03:38;;;;;;;0.00;0.00;;;19.70;99.90;;;;;;4995493;28;20050;-68
2022/08/20 00:06:08;;;;;;;2.63;1.00;;;19.60;99.90;;;;;;4994578;28;20136;-68
2022/08/20 00:08:36;;;;;;;0.10;0.10;;;19.60;99.90;;;;;;4992514;28;20056;-68
2022/08/20 00:11:03;;;;;;;0.00;0.00;;;19.70;99.90;;;;;;5000429;28;20046;-68
2022/08/20 00:13:33;;;;;;;0.00;0.00;;;19.60;99.90;;;;;;5005882;28;20041;-68
2022/08/20 00:15:59;;;;;;;0.10;0.10;;;19.60;99.90;;;;;;4989597;28;20042;-68
2022/08/20 00:18:25;;;;;;;0.20;0.20;;;19.60;99.90;;;;;;5004745;28;20045;-68
2022/08/20 00:20:53;;;;;;;0.00;0.00;;;19.60;99.90;;;;;;5006970;28;20405;-68
2022/08/20 00:23:19;;;;;;;0.55;0.55;;;19.60;99.90;;;;;;5006593;28;20053;-67
2022/08/20 00:25:45;;;;;;;0.20;0.13;;;19.50;99.90;;;;;;5000709;28;20047;-68
2022/08/20 00:28:12;;;;;;;0.10;0.10;;;19.40;99.90;;;;;;5005352;28;20473;-68
2022/08/20 00:30:40;;;;;;;0.00;0.00;;;19.50;99.90;;;;;;5003361;28;20046;-68
2022/08/20 00:33:09;;;;;;;0.00;0.00;;;19.40;99.90;;;;;;4988899;28;20065;-68
2022/08/20 00:35:39;;;;;;;3.22;2.40;;;19.40;99.90;;;;;;5004839;28;20514;-68
2022/08/20 00:38:05;;;;;;;0.20;0.20;;;19.30;99.90;;;;;;5005382;28;20138;-68
2022/08/20 00:40:37;;;;;;;1.00;0.35;;;19.30;99.90;;;;;;4990759;28;20133;-67
2022/08/20 00:43:06;;;;;;;0.00;0.00;;;19.30;99.90;;;;;;5007477;28;20124;-68
2022/08/20 00:45:34;;;;;;;0.00;0.00;;;19.30;99.90;;;;;;5002580;28;20054;-67
2022/08/20 00:48:00;;;;;;;0.20;0.20;;;19.20;99.90;;;;;;4989261;28;20550;-68
2022/08/20 00:50:32;;;;;;;0.00;0.00;;;19.20;99.90;;;;;;5005031;28;20066;-68
2022/08/20 00:53:01;;;;;;;1.23;0.30;;;19.20;99.90;;;;;;5007351;28;20052;-68
2022/08/20 00:55:28;;;;;;;0.00;0.00;;;19.20;99.90;;;;;;4997612;28;20104;-68
2022/08/20 00:57:58;;;;;;;0.25;0.25;;;19.20;99.90;;;;;;4999954;28;20066;-67
2022/08/20 01:00:32;;;;;;;0.10;0.10;;;19.10;99.90;;;;;;4994650;28;20045;-68
2022/08/20 01:02:59;;;;;;;0.68;0.68;;;19.10;99.90;;;;;;5003508;28;20056;-68
2022/08/20 01:05:25;;;;;;;0.20;0.20;;;19.00;99.90;;;;;;4994393;28;20717;-68
2022/08/20 01:07:52;;;;;;;1.45;0.70;;;19.00;99.90;;;;;;5004261;28;20100;-68
2022/08/20 01:10:23;;;;;;;0.00;0.00;;;19.00;99.90;;;;;;5005314;28;20073;-68
2022/08/20 01:12:49;;;;;;;0.00;0.00;;;19.00;99.90;;;;;;4993395;28;20046;-67
2022/08/20 01:15:20;;;;;;;0.28;0.28;;;19.00;99.90;;;;;;4995880;28;20049;-68
2022/08/20 01:17:49;;;;;;;0.15;0.15;;;19.00;99.90;;;;;;4992959;28;20121;-67
2022/08/20 01:20:23;;;;;;;0.05;0.05;;;19.00;99.90;;;;;;4998462;28;20042;-67
2022/08/20 01:23:31;;;;;;;0.28;0.28;;;19.00;99.90;;;;;;5003221;28;20049;-68
2022/08/20 01:26:11;;;;;;;0.40;0.40;;;19.00;99.90;;;;;;5008331;28;20050;-68
2022/08/20 01:28:55;;;;;;;0.00;0.00;;;19.00;99.90;;;;;;4993310;28;20078;-67
2022/08/20 01:31:26;;;;;;;4.47;0.38;;;19.10;99.90;;;;;;5000970;28;20062;-68
2022/08/20 01:33:54;;;;;;;0.20;0.20;;;19.00;99.90;;;;;;5003800;28;20141;-68
2022/08/20 01:36:29;;;;;;;0.00;0.00;;;19.10;99.90;;;;;;5003460;28;20038;-68
2022/08/20 01:38:55;;;;;;;0.00;0.00;;;19.10;99.90;;;;;;5004149;28;20053;-68
2022/08/20 01:41:20;;;;;;;0.43;0.43;;;19.10;99.90;;;;;;5001783;28;20052;-68
2022/08/20 01:43:55;;;;;;;0.10;0.10;;;19.00;99.90;;;;;;4997629;28;20046;-68
2022/08/20 01:46:23;;;;;;;0.28;0.28;;;19.00;99.90;;;;;;4999044;28;20038;-68
2022/08/20 01:48:49;;;;;;;1.25;0.28;;;19.00;99.90;;;;;;4996822;28;20046;-68
2022/08/20 01:51:21;;;;;;;0.00;0.00;;;19.00;99.90;;;;;;4998179;28;20650;-68
2022/08/20 01:53:50;;;;;;;0.00;0.00;;;18.90;99.90;;;;;;5009373;28;20046;-68
2022/08/20 01:56:21;;;;;;;0.22;0.22;;;19.00;99.90;;;;;;5009184;28;20508;-68
2022/08/20 01:58:53;;;;;;;0.00;0.00;;;19.00;99.90;;;;;;4997389;28;20054;-68
2022/08/20 02:01:39;;;;;;;0.08;0.08;;;18.90;99.90;;;;;;5002585;28;20041;-68
2022/08/20 02:04:07;;;;;;;0.20;0.20;;;19.00;99.90;;;;;;5009437;28;20061;-68
2022/08/20 02:06:37;;;;;;;0.00;0.00;;;18.90;99.90;;;;;;5007409;28;20037;-67
2022/08/20 02:09:04;;;;;;;0.00;0.00;;;19.00;99.90;;;;;;4991401;28;20042;-68
2022/08/20 02:11:33;;;;;;;0.10;0.10;;;18.90;99.90;;;;;;4993405;28;20056;-68
2022/08/20 02:14:00;;;;;;;0.00;0.00;;;18.90;99.90;;;;;;5010073;28;20100;-68
2022/08/20 02:16:33;;;;;;;0.00;0.00;;;18.80;99.90;;;;;;5007820;28;20041;-68
2022/08/20 02:19:11;;;;;;;1.45;0.47;;;18.80;99.90;;;;;;4993386;28;20088;-67
2022/08/20 02:21:40;;;;;;;0.00;0.00;;;18.70;99.90;;;;;;4995166;28;20053;-67
2022/08/20 02:24:06;;;;;;;0.10;0.10;;;18.70;99.90;;;;;;4990194;28;20050;-68
2022/08/20 02:26:32;;;;;;;0.00;0.00;;;18.60;99.90;;;;;;5006501;28;20441;-67
2022/08/20 02:28:58;;;;;;;0.65;0.57;;;18.60;99.90;;;;;;4996772;28;20100;-67
2022/08/20 02:31:24;;;;;;;8.48;0.47;;;18.50;99.90;;;;;;5000202;28;20038;-67
2022/08/20 02:33:50;;;;;;;0.00;0.00;;;18.40;99.90;;;;;;5002987;28;20069;-67
2022/08/20 02:36:17;;;;;;;0.00;0.00;;;18.30;99.90;;;;;;4994647;28;20030;-68
2022/08/20 02:38:45;;;;;;;0.38;0.25;;;18.30;99.90;;;;;;5009969;28;20129;-67
2022/08/20 02:41:11;;;;;;;0.55;0.55;;;18.30;99.90;;;;;;4996662;28;20050;-67
2022/08/20 02:43:37;;;;;;;0.03;0.03;;;18.20;99.90;;;;;;4993049;28;20110;-68
2022/08/20 02:46:05;;;;;;;0.00;0.00;;;18.20;99.90;;;;;;4989048;28;20038;-68
2022/08/20 02:48:32;;;;;;;0.00;0.00;;;18.20;99.90;;;;;;4994638;28;20053;-68
2022/08/20 02:51:03;;;;;;;0.20;0.20;;;18.10;99.90;;;;;;4998182;28;20494;-68
2022/08/20 02:53:32;;;;;;;0.00;0.00;;;18.10;99.90;;;;;;5003091;28;20100;-68
2022/08/20 02:55:58;;;;;;;0.00;0.00;;;18.10;99.90;;;;;;5006967;28;20111;-68
2022/08/20 02:58:24;;;;;;;0.10;0.10;;;18.10;99.90;;;;;;5004800;28;20058;-68
2022/08/20 03:00:49;;;;;;;0.00;0.00;;;18.10;99.90;;;;;;4996845;28;20095;-68
2022/08/20 03:03:21;;;;;;;2.33;1.10;;;18.10;99.90;;;;;;5007606;28;20049;-68
2022/08/20 03:05:48;;;;;;;2.65;0.63;;;18.00;99.90;;;;;;4991401;28;20542;-68
2022/08/20 03:08:15;;;;;;;0.10;0.10;;;18.00;99.90;;;;;;5006527;28;20512;-68
2022/08/20 03:10:43;;;;;;;0.10;0.10;;;17.90;99.90;;;;;;4997859;28;20498;-67
2022/08/20 03:13:11;;;;;;;0.00;0.00;;;17.90;99.90;;;;;;5001221;28;20084;-68
2022/08/20 03:15:40;;;;;;;0.60;0.60;;;17.90;99.90;;;;;;5007437;28;20045;-68
2022/08/20 03:18:06;;;;;;;0.00;0.00;;;17.80;99.90;;;;;;5005506;28;20176;-67
2022/08/20 03:20:31;;;;;;;0.10;0.10;;;17.80;99.90;;;;;;4993697;28;20073;-67
2022/08/20 03:22:57;;;;;;;0.00;0.00;;;17.70;99.90;;;;;;5006310;28;20073;-67
2022/08/20 03:25:23;;;;;;;0.00;0.00;;;17.70;99.90;;;;;;5004027;28;20068;-68
2022/08/20 03:27:49;;;;;;;0.00;0.00;;;17.70;99.90;;;;;;4996416;28;20050;-67
2022/08/20 03:30:16;;;;;;;0.08;0.08;;;17.60;99.90;;;;;;4993480;28;20077;-67
2022/08/20 03:32:42;;;;;;;0.10;0.10;;;17.60;99.90;;;;;;5005908;28;20541;-68
2022/08/20 03:35:10;;;;;;;0.47;0.17;;;17.50;99.90;;;;;;5004243;28;20065;-67
2022/08/20 03:37:37;;;;;;;0.20;0.20;;;17.50;99.90;;;;;;4995981;28;20549;-67
2022/08/20 03:40:07;;;;;;;0.00;0.00;;;17.40;99.90;;;;;;4989212;28;20046;-67
2022/08/20 03:42:33;;;;;;;0.47;0.47;;;17.40;99.90;;;;;;5004331;28;20091;-67
2022/08/20 03:44:59;;;;;;;0.00;0.00;;;17.40;99.90;;;;;;4992522;28;20054;-68
2022/08/20 03:47:25;;;;;;;0.00;0.00;;;17.40;99.90;;;;;;5006215;28;20042;-68
2022/08/20 03:49:51;;;;;;;2.53;1.75;;;17.30;99.90;;;;;;5007541;28;20104;-68
2022/08/20 03:52:16;;;;;;;0.10;0.10;;;17.30;99.90;;;;;;5003200;28;20042;-68
2022/08/20 03:54:44;;;;;;;0.03;0.03;;;17.30;99.90;;;;;;4991025;28;20465;-67
2022/08/20 03:57:14;;;;;;;0.00;0.00;;;17.30;99.90;;;;;;5002245;28;20054;-67
2022/08/20 03:59:41;;;;;;;0.00;0.00;;;17.20;99.90;;;;;;4996739;28;20827;-68
2022/08/20 04:02:07;;;;;;;0.30;0.30;;;17.20;99.90;;;;;;4996143;28;20175;-68
2022/08/20 04:04:33;;;;;;;0.28;0.28;;;17.10;99.90;;;;;;5005991;28;20045;-67
2022/08/20 04:06:58;;;;;;;0.10;0.10;;;17.10;99.90;;;;;;4989408;28;20085;-67
2022/08/20 04:09:24;;;;;;;1.85;0.95;;;17.00;99.90;;;;;;5005447;28;20402;-67
2022/08/20 04:11:49;;;;;;;0.20;0.20;;;17.10;99.90;;;;;;5005860;28;20042;-67
2022/08/20 04:14:15;;;;;;;0.32;0.32;;;17.00;99.90;;;;;;4989971;28;20089;-67
2022/08/20 04:16:40;;;;;;;0.00;0.00;;;17.00;99.90;;;;;;4999851;28;20077;-67
2022/08/20 04:19:06;;;;;;;0.10;0.10;;;16.90;99.90;;;;;;4999865;28;20049;-67
2022/08/20 04:21:34;;;;;;;0.00;0.00;;;16.90;99.90;;;;;;5000369;28;20042;-67
2022/08/20 04:24:01;;;;;;;0.00;0.00;;;16.90;99.90;;;;;;5005948;28;20517;-67
2022/08/20 04:26:26;;;;;;;0.35;0.35;;;16.80;99.90;;;;;;5002796;28;20054;-67
2022/08/20 04:28:54;;;;;;;0.00;0.00;;;16.80;99.90;;;;;;4994928;28;20817;-67
2022/08/20 04:31:20;;;;;;;0.00;0.00;;;16.80;99.90;;;;;;5003052;28;20056;-67
2022/08/20 04:33:46;;;;;;;0.10;0.10;;;16.80;99.90;;;;;;4990267;28;20050;-67
2022/08/20 04:36:13;;;;;;;0.00;0.00;;;16.80;99.90;;;;;;4993926;28;20052;-68
2022/08/20 04:38:38;;;;;;;0.08;0.08;;;16.80;99.90;;;;;;5005921;28;20565;-68
2022/08/20 04:41:04;;;;;;;1.88;1.10;;;16.90;99.90;;;;;;5003490;28;20040;-68
2022/08/20 04:43:34;;;;;;;0.00;0.00;;;16.80;99.90;;;;;;5001184;28;20397;-67
2022/08/20 04:46:08;;;;;;;0.10;0.10;;;16.80;99.90;;;;;;5005587;28;20069;-67
2022/08/20 04:48:37;;;;;;;0.00;0.00;;;16.80;99.90;;;;;;4994946;28;20081;-67
2022/08/20 04:51:05;;;;;;;0.00;0.00;;;16.80;99.90;;;;;;4991098;28;20042;-68
2022/08/20 04:53:30;;;;;;;0.05;0.05;;;16.70;99.90;;;;;;4998635;28;20038;-68
2022/08/20 04:55:58;;;;;;;0.00;0.00;;;16.70;99.90;;;;;;5006244;28;20042;-67
2022/08/20 04:58:29;;;;;;;0.00;0.00;;;16.80;99.90;;;;;;5008583;28;20104;-68
2022/08/20 05:00:57;;;;;;;0.00;0.00;;;16.70;99.90;;;;;;4997198;28;20128;-67
2022/08/20 05:03:23;;;;;;;0.82;0.75;;;16.60;99.90;;;;;;4995431;28;20405;-67
2022/08/20 05:05:49;;;;;;;0.15;0.15;;;16.60;99.90;;;;;;5009646;28;20049;-67
2022/08/20 05:08:17;;;;;;;0.47;0.15;;;16.50;99.90;;;;;;4998435;28;20044;-68
2022/08/20 05:10:43;;;;;;;0.10;0.10;;;16.50;99.90;;;;;;5008625;28;20060;-67
2022/08/20 05:13:09;;;;;;;0.00;0.00;;;16.50;99.90;;;;;;5009860;28;20052;-67
2022/08/20 05:15:37;;;;;;;4.97;1.20;;;16.50;99.90;;;;;;5010082;28;20049;-67
2022/08/20 05:18:06;;;;;;;0.10;0.10;;;16.60;99.90;;;;;;4999986;28;20046;-68
2022/08/20 05:20:39;;;;;;;0.70;0.70;;;16.70;99.90;;;;;;5006574;28;20073;-67
2022/08/20 05:23:07;;;;;;;0.10;0.10;;;16.70;99.90;;;;;;4991361;28;20116;-67
2022/08/20 05:25:33;;;;;;;0.10;0.10;;;16.70;99.90;;;;;;4998563;28;20088;-67
2022/08/20 05:28:20;;;;;;;0.03;0.03;;;16.80;99.90;;;;;;5009581;28;20042;-67
2022/08/20 05:30:47;;;;;;;0.10;0.10;;;16.70;99.90;;;;;;4995442;28;20089;-67
2022/08/20 05:33:17;;;;;;;0.00;0.00;;;16.70;99.90;;;;;;5003613;28;20042;-68
2022/08/20 05:35:43;;;;;;;0.00;0.00;;;16.70;99.90;;;;;;4996193;28;20061;-68
2022/08/20 05:38:11;;;;;;;6.78;0.15;;;16.80;99.90;;;;;;5005064;28;20052;-67
2022/08/20 05:40:39;;;;;;;0.00;0.00;;;16.70;99.90;;;;;;4992389;28;20495;-68
2022/08/20 05:43:04;;;;;;;0.00;0.00;;;16.80;99.90;;;;;;5005458;28;20125;-68
2022/08/20 05:45:32;;;;;;;0.00;0.00;;;16.80;99.90;;;;;;4991262;28;20124;-67
2022/08/20 05:47:58;;;;;;;0.15;0.15;;;16.80;99.90;;;;;;4995285;28;20078;-68
2022/08/20 05:50:24;;;;;;;0.05;0.05;;;16.80;99.90;;;;;;4997042;28;20054;-68
2022/08/20 05:52:50;;;;;;;0.22;0.22;;;16.90;99.90;;;;;;5008846;28;20057;-68
2022/08/20 05:55:16;;;;;;;0.52;0.52;;;16.90;99.90;;;;;;5010223;28;20187;-68
2022/08/20 05:57:42;;;;;;;0.00;0.00;;;17.00;99.90;;;;;;5000253;28;20141;-68
2022/08/20 06:00:10;;;;;;;0.00;0.00;;;17.00;99.90;;;;;;4992905;28;20081;-68
2022/08/20 06:05:20;;;;;;;0.08;0.08;;;17.00;99.90;;;;;;4990573;28;20046;-68
2022/08/20 06:07:46;;;;;;;0.00;0.00;;;17.00;99.90;;;;;;4995841;28;20386;-68
2022/08/20 06:10:12;;;;;;;0.03;0.03;;;17.10;99.90;;;;;;5003810;28;20055;-68
2022/08/20 06:12:38;;;;;;;0.00;0.00;;;17.10;99.90;;;;;;4995741;28;20046;-68
2022/08/20 06:15:05;;;;;;;0.25;0.25;;;17.10;99.90;;;;;;5004821;28;20056;-68
2022/08/20 06:17:32;;;;;;;0.00;0.00;;;17.10;99.90;;;;;;5008317;28;20069;-68
2022/08/20 06:20:06;;;;;;;0.00;0.00;;;17.10;99.90;;;;;;5007237;28;20164;-68
2022/08/20 06:22:32;;;;;;;0.10;0.10;;;17.10;99.90;;;;;;4990248;28;20061;-68
2022/08/20 06:24:58;;;;;;;0.00;0.00;;;17.20;99.90;;;;;;4989684;28;20046;-68
2022/08/20 06:27:25;;;;;;;0.00;0.00;;;17.30;99.90;;;;;;5003569;28;20073;-68
2022/08/20 06:29:51;;;;;;;0.00;0.00;;;17.30;99.90;;;;;;5008825;28;20088;-68
2022/08/20 06:32:18;;;;;;;0.20;0.20;;;17.30;99.90;;;;;;4992854;28;20050;-68
2022/08/20 06:34:44;;;;;;;0.00;0.00;;;17.30;99.90;;;;;;5000492;28;20056;-68
2022/08/20 06:37:14;;;;;;;0.00;0.00;;;17.30;99.90;;;;;;4996575;28;20054;-68
2022/08/20 06:39:41;;;;;;;0.10;0.10;;;17.40;99.90;;;;;;4999872;28;20042;-68
2022/08/20 06:42:06;;;;;;;0.00;0.00;;;17.60;99.90;;;;;;5006321;28;20048;-68
2022/08/20 06:44:33;;;;;;;0.47;0.47;;;17.60;99.90;;;;;;5006334;28;20042;-68
2022/08/20 06:47:03;;;;;;;0.00;0.00;;;17.60;99.90;;;;;;4995675;28;20041;-69
2022/08/20 06:49:29;;;;;;;0.08;0.08;;;17.80;99.90;;;;;;5006055;28;20521;-68
2022/08/20 06:51:55;;;;;;;0.47;0.47;;;17.80;99.90;;;;;;4997879;28;20050;-68
2022/08/20 06:54:21;;;;;;;0.00;0.00;;;17.90;99.90;;;;;;4994307;28;20402;-68
2022/08/20 06:56:47;;;;;;;0.22;0.22;;;18.00;99.90;;;;;;4989440;28;20196;-69
2022/08/20 06:59:12;;;;;;;0.10;0.10;;;18.00;99.90;;;;;;4991245;28;20050;-68
2022/08/20 07:01:38;;;;;;;0.32;0.30;;;18.10;99.90;;;;;;4994790;28;20155;-69
2022/08/20 07:04:04;;;;;;;0.00;0.00;;;18.20;99.90;;;;;;4989235;28;20054;-68
2022/08/20 07:06:30;;;;;;;0.05;0.05;;;18.30;99.90;;;;;;4995599;28;20543;-68
2022/08/20 07:08:56;;;;;;;0.52;0.50;;;18.40;99.90;;;;;;5009476;28;20089;-68
2022/08/20 07:11:22;;;;;;;0.15;0.15;;;18.50;99.90;;;;;;5007283;28;20121;-68
2022/08/20 07:13:48;;;;;;;0.10;0.10;;;18.60;99.90;;;;;;5008044;28;20195;-68
2022/08/20 07:16:14;;;;;;;0.00;0.00;;;18.70;99.90;;;;;;4989301;28;20054;-68
2022/08/20 07:18:40;;;;;;;0.00;0.00;;;18.70;99.90;;;;;;4988087;28;20157;-68
2022/08/20 07:21:06;;;;;;;0.00;0.00;;;18.80;99.90;;;;;;5004511;28;20133;-68
2022/08/20 07:23:32;;;;;;;0.00;0.00;;;18.90;99.90;;;;;;4991407;28;20394;-68
2022/08/20 07:25:57;;;;;;;0.20;0.20;;;19.00;99.90;;;;;;4989313;28;20061;-68
2022/08/20 07:28:27;;;;;;;0.15;0.15;;;19.00;99.90;;;;;;5008744;28;20045;-68
2022/08/20 07:33:39;;;;;;;0.45;0.45;;;19.10;99.90;;;;;;5000650;28;20136;-68
2022/08/20 07:36:05;;;;;;;0.20;0.20;;;19.10;99.90;;;;;;5008479;28;20045;-68
2022/08/20 07:38:33;;;;;;;0.20;0.20;;;19.20;99.90;;;;;;5008503;28;20080;-68
2022/08/20 07:41:01;;;;;;;0.00;0.00;;;19.20;99.90;;;;;;4997342;28;20077;-68
2022/08/20 07:43:28;;;;;;;0.10;0.10;;;19.20;99.90;;;;;;4987688;28;20042;-69
2022/08/20 07:45:57;;;;;;;0.17;0.17;;;19.20;99.90;;;;;;4997175;28;20050;-68
2022/08/20 07:48:24;;;;;;;0.20;0.20;;;19.30;99.90;;;;;;4989150;28;20046;-69
2022/08/20 07:50:51;;;;;;;0.93;0.57;;;19.30;99.90;;;;;;5003062;28;20052;-69
2022/08/20 07:53:17;;;;;;;0.00;0.00;;;19.50;99.90;;;;;;5002971;28;20050;-68
2022/08/20 07:55:43;;;;;;;0.00;0.00;;;19.50;99.90;;;;;;4996168;28;20042;-68
2022/08/20 07:58:11;;;;;;;0.00;0.00;;;19.50;99.90;;;;;;4996574;28;20124;-68
2022/08/20 08:00:38;;;;;;;0.00;0.00;;;19.50;99.90;;;;;;5002192;28;20565;-67
2022/08/20 08:03:04;;;;;;;0.00;0.00;;;19.60;99.90;;;;;;5002950;28;20052;-68
2022/08/20 08:05:33;;;;;;;0.00;0.00;;;19.70;99.90;;;;;;5001228;28;20615;-66
2022/08/20 08:07:59;;;;;;;0.00;0.00;;;19.70;99.90;;;;;;4996241;28;20121;-68
2022/08/20 08:10:26;;;;;;;0.00;0.00;;;19.70;99.90;;;;;;5001081;28;20258;-68
2022/08/20 08:12:55;;;;;;;0.00;0.00;;;19.80;99.90;;;;;;5007026;28;20088;-67
2022/08/20 08:15:27;;;;;;;0.00;0.00;;;19.70;99.90;;;;;;4992099;28;20030;-67
2022/08/20 08:17:57;;;;;;;0.00;0.00;;;19.80;99.90;;;;;;5001094;28;20079;-67
2022/08/20 08:20:23;;;;;;;0.55;0.55;;;19.90;99.90;;;;;;5006150;28;20037;-67
2022/08/20 08:22:50;;;;;;;3.30;0.90;;;19.90;99.90;;;;;;5006528;28;20045;-67
2022/08/20 08:25:16;;;;;;;0.00;0.00;;;20.00;99.90;;;;;;4989513;28;20097;-68
2022/08/20 08:27:46;;;;;;;0.17;0.17;;;20.00;99.90;;;;;;4989669;28;20047;-67
2022/08/20 08:30:12;;;;;;;0.80;0.35;;;20.00;99.90;;;;;;4988695;28;20109;-67
2022/08/20 08:33:26;;;;;;;0.25;0.25;;;20.00;99.90;;;;;;4995187;28;20050;-67
2022/08/20 08:35:24;;;;;;;0.10;0.10;;;20.10;99.90;;;;;;4993178;28;20657;-67
2022/08/20 08:37:50;;;;;;;0.10;0.10;;;20.20;99.90;;;;;;4994043;28;20050;-67
2022/08/20 08:40:16;;;;;;;0.43;0.43;;;20.20;99.90;;;;;;4990764;28;20061;-68
2022/08/20 08:42:47;;;;;;;0.00;0.00;;;20.20;99.90;;;;;;5004113;28;20124;-67
2022/08/20 08:45:17;;;;;;;1.77;0.47;;;20.30;99.90;;;;;;4991377;28;20042;-68
2022/08/20 08:47:44;;;;;;;3.72;0.95;;;20.40;99.90;;;;;;5007446;28;20125;-68
2022/08/20 08:50:21;;;;;;;0.00;0.00;;;20.50;99.90;;;;;;4999055;28;20050;-68
2022/08/20 08:52:52;;;;;;;0.00;0.00;;;20.50;99.90;;;;;;5009898;28;20479;-68
2022/08/20 08:55:20;;;;;;;0.00;0.00;;;20.60;99.90;;;;;;4991761;28;20050;-67
2022/08/20 08:57:48;;;;;;;0.00;0.00;;;20.60;99.90;;;;;;4990448;28;20054;-68
2022/08/20 09:00:16;;;;;;;0.00;0.00;;;20.50;99.90;;;;;;4990657;28;20062;-67
2022/08/20 09:03:06;;;;;;;0.00;0.00;;;20.40;99.90;;;;;;4994451;28;20080;-68
2022/08/20 09:05:38;;;;;;;0.45;0.10;;;20.40;99.90;;;;;;4992877;28;20134;-67
2022/08/20 09:08:08;;;;;;;0.00;0.00;;;20.50;99.90;;;;;;4990257;28;20054;-67
2022/08/20 09:10:33;;;;;;;0.32;0.32;;;20.70;99.90;;;;;;4990264;28;20046;-68
2022/08/20 09:13:00;;;;;;;0.20;0.20;;;20.90;99.90;;;;;;4992152;28;20050;-67
2022/08/20 09:15:26;;;;;;;0.00;0.00;;;20.90;99.90;;;;;;4997642;28;20050;-67
2022/08/20 09:17:51;;;;;;;0.00;0.00;;;20.90;99.90;;;;;;4993793;28;20487;-66
2022/08/20 09:20:17;;;;;;;0.00;0.00;;;21.60;99.90;;;;;;5010164;28;20045;-67
2022/08/20 09:22:43;;;;;;;0.10;0.10;;;22.40;99.90;;;;;;5007874;28;20072;-67
2022/08/20 09:25:08;;;;;;;0.00;0.00;;;23.30;99.90;;;;;;5009681;28;20561;-67
2022/08/20 09:27:34;;;;;;;0.00;0.00;;;23.60;99.90;;;;;;5006274;28;20042;-67
2022/08/20 09:30:00;;;;;;;0.00;0.00;;;24.10;99.90;;;;;;4993674;28;20128;-66
2022/08/20 09:32:26;;;;;;;0.15;0.15;;;24.40;99.90;;;;;;5008634;28;20084;-68
2022/08/20 09:34:58;;;;;;;0.13;0.13;;;24.60;99.90;;;;;;4996731;28;20046;-68
2022/08/20 09:37:26;;;;;;;0.00;0.00;;;24.70;99.90;;;;;;4991534;28;20041;-67
2022/08/20 09:39:51;;;;;;;0.00;0.00;;;24.70;99.90;;;;;;4991459;28;20050;-68
2022/08/20 09:42:20;;;;;;;0.47;0.47;;;24.90;99.70;;;;;;4989901;28;20453;-68
2022/08/20 09:44:46;;;;;;;0.00;0.00;;;25.10;99.80;;;;;;4991820;28;20069;-68
2022/08/20 09:47:12;;;;;;;0.30;0.22;;;25.60;99.40;;;;;;5000559;28;20477;-68
2022/08/20 09:49:38;;;;;;;0.13;0.13;;;25.60;98.10;;;;;;5010080;28;20054;-67
2022/08/20 09:52:06;;;;;;;0.15;0.15;;;25.80;98.50;;;;;;5010613;28;20046;-68
2022/08/20 09:54:33;;;;;;;0.20;0.20;;;25.60;98.90;;;;;;4998711;28;20050;-68
2022/08/20 09:57:03;;;;;;;0.52;0.30;;;25.70;98.20;;;;;;4989355;28;20129;-68
2022/08/20 09:59:31;;;;;;;0.00;0.00;;;25.70;98.10;;;;;;4989047;28;20046;-68
2022/08/20 10:01:56;;;;;;;0.60;0.60;;;25.40;98.60;;;;;;4990031;28;20054;-68
2022/08/20 10:04:22;;;;;;;0.00;0.00;;;25.00;98.10;;;;;;4989748;28;20052;-68
2022/08/20 10:06:47;;;;;;;0.00;0.00;;;25.00;98.30;;;;;;4990924;28;20693;-68
2022/08/20 10:09:14;;;;;;;0.00;0.00;;;24.60;98.80;;;;;;4990346;28;20058;-68
2022/08/20 10:11:39;;;;;;;0.13;0.13;;;24.30;99.50;;;;;;4990392;28;20700;-68
2022/08/20 10:14:06;;;;;;;0.63;0.63;;;24.30;98.70;;;;;;4992130;28;20133;-68
2022/08/20 10:16:32;;;;;;;0.03;0.03;;;24.70;97.50;;;;;;4997960;28;20046;-68
2022/08/20 10:18:58;;;;;;;0.00;0.00;;;25.20;97.90;;;;;;4992808;28;20136;-68
2022/08/20 10:21:23;;;;;;;0.00;0.00;;;25.50;97.90;;;;;;5004020;28;20421;-68
2022/08/20 10:23:49;;;;;;;0.43;0.43;;;25.60;97.80;;;;;;4993845;28;20058;-68
2022/08/20 10:26:15;;;;;;;0.15;0.15;;;25.20;97.10;;;;;;4992526;28;20046;-68
2022/08/20 10:28:42;;;;;;;0.00;0.00;;;25.10;98.30;;;;;;4993139;28;20046;-68
2022/08/20 10:31:09;;;;;;;0.35;0.20;;;25.10;98.60;;;;;;5002998;28;20549;-68
2022/08/20 10:33:36;;;;;;;0.00;0.00;;;25.20;98.00;;;;;;4995802;28;20080;-68
2022/08/20 10:36:14;;;;;;;0.00;0.00;;;25.00;97.30;;;;;;5005126;28;20065;-67
2022/08/20 10:38:40;;;;;;;0.00;0.00;;;25.10;97.80;;;;;;4999149;28;20042;-68
2022/08/20 10:41:06;;;;;;;0.00;0.00;;;25.10;97.50;;;;;;5002521;28;20046;-68
2022/08/20 10:43:32;;;;;;;1.55;0.95;;;25.20;98.30;;;;;;5000277;28;20030;-67
2022/08/20 10:45:57;;;;;;;0.43;0.43;;;25.30;98.60;;;;;;5003980;28;20050;-68
2022/08/20 10:48:23;;;;;;;0.10;0.10;;;24.90;98.90;;;;;;5005599;28;20038;-69
2022/08/20 10:50:49;;;;;;;0.00;0.00;;;24.40;97.70;;;;;;4993091;28;20376;-68
2022/08/20 10:53:16;;;;;;;0.00;0.00;;;24.40;98.60;;;;;;4988676;28;20064;-68
2022/08/20 10:55:42;;;;;;;0.20;0.20;;;24.70;99.90;;;;;;4993034;28;20708;-68
2022/08/20 10:58:08;;;;;;;4.78;0.82;;;24.50;97.70;;;;;;5003855;28;20518;-68
2022/08/20 11:00:34;;;;;;;0.00;0.00;;;24.50;99.00;;;;;;4989520;28;20053;-68
2022/08/20 11:03:00;;;;;;;0.75;0.50;;;24.90;99.50;;;;;;4989558;28;20072;-68
2022/08/20 11:05:26;;;;;;;0.20;0.20;;;25.20;98.80;;;;;;4999033;28;20040;-69
2022/08/20 11:07:53;;;;;;;0.00;0.00;;;25.30;96.50;;;;;;4990007;28;20492;-68
2022/08/20 11:10:20;;;;;;;0.03;0.03;;;25.00;96.60;;;;;;5005189;28;20510;-68
2022/08/20 11:12:45;;;;;;;0.00;0.00;;;24.80;98.00;;;;;;5009401;28;20050;-68
2022/08/20 11:15:11;;;;;;;0.00;0.00;;;25.30;98.60;;;;;;5005565;28;20425;-69
2022/08/20 11:17:40;;;;;;;0.03;0.03;;;25.30;98.60;;;;;;4989324;28;20046;-68
2022/08/20 11:20:09;;;;;;;0.28;0.28;;;25.20;97.70;;;;;;5002772;28;20050;-69
2022/08/20 11:22:35;;;;;;;0.00;0.00;;;25.30;97.20;;;;;;4999818;28;20034;-68
2022/08/20 11:25:01;;;;;;;0.05;0.05;;;25.00;96.90;;;;;;4988841;28;20054;-68
2022/08/20 11:27:30;;;;;;;0.20;0.10;;;24.60;97.40;;;;;;5001103;28;20052;-68
2022/08/20 11:29:56;;;;;;;0.00;0.00;;;25.00;96.70;;;;;;4999266;28;20092;-68
2022/08/20 11:32:23;;;;;;;0.00;0.00;;;25.20;98.10;;;;;;4988629;28;20050;-68
2022/08/20 11:34:49;;;;;;;0.00;0.00;;;25.00;98.40;;;;;;4989531;28;20540;-68
2022/08/20 11:37:17;;;;;;;0.10;0.10;;;25.20;99.00;;;;;;4989166;28;20054;-68
2022/08/20 11:39:42;;;;;;;1.38;0.08;;;25.60;98.00;;;;;;4988272;28;20129;-69
2022/08/20 11:42:08;;;;;;;0.10;0.10;;;25.60;96.90;;;;;;4997205;28;20466;-68
2022/08/20 11:44:34;;;;;;;0.00;0.00;;;25.30;96.70;;;;;;5008615;28;20038;-68
2022/08/20 11:47:02;;;;;;;0.10;0.03;;;25.00;96.60;;;;;;4994506;28;20045;-68
2022/08/20 11:49:29;;;;;;;0.10;0.10;;;25.40;97.80;;;;;;4995690;28;20659;-68
2022/08/20 11:51:54;;;;;;;0.00;0.00;;;25.40;96.70;;;;;;5003631;28;20046;-68
2022/08/20 11:54:20;;;;;;;0.00;0.00;;;25.10;97.00;;;;;;5008680;28;20046;-69
2022/08/20 11:56:46;;;;;;;0.00;0.00;;;25.60;98.90;;;;;;5007442;28;20038;-68
2022/08/20 11:59:13;;;;;;;0.00;0.00;;;25.50;97.50;;;;;;5007464;28;20057;-69
2022/08/20 12:01:38;;;;;;;0.00;0.00;;;25.00;97.60;;;;;;4988960;28;20054;-68
2022/08/20 12:04:04;;;;;;;0.00;0.00;;;24.80;97.30;;;;;;4988461;28;20088;-68
2022/08/20 12:06:30;;;;;;;0.10;0.10;;;24.60;97.80;;;;;;4988388;28;20073;-68
2022/08/20 12:08:55;;;;;;;1.55;0.30;;;24.30;97.20;;;;;;4989231;28;20050;-68
2022/08/20 12:11:21;;;;;;;0.38;0.38;;;24.10;98.40;;;;;;4986920;28;20061;-68
2022/08/20 12:13:46;;;;;;;0.00;0.00;;;23.90;97.70;;;;;;4989149;28;20050;-68
2022/08/20 12:16:12;;;;;;;0.10;0.10;;;23.80;98.70;;;;;;4990686;28;20081;-68
2022/08/20 12:18:38;;;;;;;0.00;0.00;;;23.90;97.50;;;;;;5001316;28;20257;-68
2022/08/20 12:21:03;;;;;;;0.00;0.00;;;24.00;97.90;;;;;;4988621;28;20460;-68
2022/08/20 12:23:29;;;;;;;0.00;0.00;;;24.00;99.30;;;;;;4988648;28;20054;-68
2022/08/20 12:25:54;;;;;;;0.00;0.00;;;24.00;98.90;;;;;;4991218;28;20060;-68
2022/08/20 12:28:20;;;;;;;14.52;0.80;;;24.10;97.90;;;;;;4991679;28;20081;-68
2022/08/20 12:30:46;;;;;;;0.00;0.00;;;24.00;98.00;;;;;;4988327;28;20665;-68
2022/08/20 12:33:13;;;;;;;0.10;0.10;;;23.90;98.50;;;;;;5006640;28;20370;-68
2022/08/20 12:35:39;;;;;;;0.08;0.08;;;23.80;99.10;;;;;;5008040;28;20515;-68
2022/08/20 12:38:05;;;;;;;0.00;0.00;;;23.70;99.10;;;;;;5008201;28;20042;-68
2022/08/20 12:40:32;;;;;;;7.78;0.38;;;23.60;98.90;;;;;;4994600;28;20512;-68
2022/08/20 12:42:58;;;;;;;2.47;0.50;;;23.70;97.20;;;;;;5000472;28;20069;-68
2022/08/20 12:45:24;;;;;;;0.10;0.10;;;23.70;97.60;;;;;;4992033;28;20043;-68
2022/08/20 12:47:50;;;;;;;0.00;0.00;;;23.60;97.30;;;;;;4991567;28;20048;-68
2022/08/20 12:50:22;;;;;;;0.00;0.00;;;23.70;97.70;;;;;;4989312;28;20061;-68
2022/08/20 12:52:48;;;;;;;0.00;0.00;;;23.70;97.80;;;;;;4988707;28;20050;-68
2022/08/20 12:55:17;;;;;;;0.00;0.00;;;23.80;97.70;;;;;;4988338;28;20097;-68